sensor_id;sensor_type;location;lat;lon;timestamp;P1;durP1;ratioP1;P2;durP2;ratioP2
39566;SDS011;25241;41.978;14.664;2022-11-20T00:00:51;0.20;;;0.10;;
39566;SDS011;25241;41.978;14.664;2022-11-20T00:03:17;1.75;;;0.10;;
39566;SDS011;25241;41.978;14.664;2022-11-20T00:05:42;1.52;;;0.30;;
39566;SDS011;25241;41.978;14.664;2022-11-20T00:08:09;1.75;;;0.30;;
39566;SDS011;25241;41.978;14.664;2022-11-20T00:10:38;1.85;;;0.77;;
39566;SDS011;25241;41.978;14.664;2022-11-20T00:13:06;2.45;;;0.65;;
39566;SDS011;25241;41.978;14.664;2022-11-20T00:15:35;4.07;;;0.65;;
39566;SDS011;25241;41.978;14.664;2022-11-20T00:18:03;2.13;;;0.20;;
39566;SDS011;25241;41.978;14.664;2022-11-20T00:20:28;0.63;;;0.20;;
39566;SDS011;25241;41.978;14.664;2022-11-20T00:22:57;1.42;;;0.20;;
39566;SDS011;25241;41.978;14.664;2022-11-20T00:25:23;2.38;;;0.45;;
39566;SDS011;25241;41.978;14.664;2022-11-20T00:27:48;1.52;;;0.22;;
39566;SDS011;25241;41.978;14.664;2022-11-20T00:30:14;2.08;;;0.38;;
39566;SDS011;25241;41.978;14.664;2022-11-20T00:32:39;2.83;;;0.30;;
39566;SDS011;25241;41.978;14.664;2022-11-20T00:35:05;0.88;;;0.20;;
39566;SDS011;25241;41.978;14.664;2022-11-20T00:37:33;0.60;;;0.10;;
39566;SDS011;25241;41.978;14.664;2022-11-20T00:40:01;0.45;;;0.25;;
39566;SDS011;25241;41.978;14.664;2022-11-20T00:42:29;0.20;;;0.20;;
39566;SDS011;25241;41.978;14.664;2022-11-20T00:44:57;0.10;;;0.10;;
39566;SDS011;25241;41.978;14.664;2022-11-20T00:47:25;0.03;;;0.03;;
39566;SDS011;25241;41.978;14.664;2022-11-20T00:49:53;0.15;;;0.00;;
39566;SDS011;25241;41.978;14.664;2022-11-20T00:52:21;0.80;;;0.10;;
39566;SDS011;25241;41.978;14.664;2022-11-20T00:54:47;0.00;;;0.00;;
39566;SDS011;25241;41.978;14.664;2022-11-20T00:57:12;3.85;;;0.40;;
39566;SDS011;25241;41.978;14.664;2022-11-20T00:59:40;0.85;;;0.30;;
39566;SDS011;25241;41.978;14.664;2022-11-20T01:02:08;4.53;;;0.63;;
39566;SDS011;25241;41.978;14.664;2022-11-20T01:04:34;6.15;;;0.57;;
39566;SDS011;25241;41.978;14.664;2022-11-20T01:07:02;1.77;;;0.77;;
39566;SDS011;25241;41.978;14.664;2022-11-20T01:09:27;1.52;;;0.93;;
39566;SDS011;25241;41.978;14.664;2022-11-20T01:11:56;3.08;;;1.30;;
39566;SDS011;25241;41.978;14.664;2022-11-20T01:14:21;2.42;;;1.55;;
39566;SDS011;25241;41.978;14.664;2022-11-20T01:16:48;8.50;;;1.85;;
39566;SDS011;25241;41.978;14.664;2022-11-20T01:19:16;2.17;;;1.23;;
39566;SDS011;25241;41.978;14.664;2022-11-20T01:21:46;2.45;;;0.93;;
39566;SDS011;25241;41.978;14.664;2022-11-20T01:24:15;3.60;;;1.05;;
39566;SDS011;25241;41.978;14.664;2022-11-20T01:26:45;2.60;;;1.02;;
39566;SDS011;25241;41.978;14.664;2022-11-20T01:36:37;1.00;;;0.60;;
39566;SDS011;25241;41.978;14.664;2022-11-20T01:39:24;0.93;;;0.63;;
39566;SDS011;25241;41.978;14.664;2022-11-20T01:41:51;1.95;;;0.93;;
39566;SDS011;25241;41.978;14.664;2022-11-20T01:44:56;7.80;;;0.90;;
39566;SDS011;25241;41.978;14.664;2022-11-20T01:47:26;1.30;;;0.60;;
39566;SDS011;25241;41.978;14.664;2022-11-20T01:50:14;1.13;;;0.50;;
39566;SDS011;25241;41.978;14.664;2022-11-20T01:52:43;3.15;;;1.20;;
39566;SDS011;25241;41.978;14.664;2022-11-20T01:55:13;1.10;;;0.52;;
39566;SDS011;25241;41.978;14.664;2022-11-20T01:58:02;0.70;;;0.30;;
39566;SDS011;25241;41.978;14.664;2022-11-20T02:00:30;1.77;;;0.55;;
39566;SDS011;25241;41.978;14.664;2022-11-20T02:03:00;2.35;;;0.17;;
39566;SDS011;25241;41.978;14.664;2022-11-20T02:07:58;2.58;;;0.50;;
39566;SDS011;25241;41.978;14.664;2022-11-20T02:10:24;0.95;;;0.38;;
39566;SDS011;25241;41.978;14.664;2022-11-20T02:12:51;1.88;;;0.73;;
39566;SDS011;25241;41.978;14.664;2022-11-20T02:15:35;3.10;;;0.85;;
39566;SDS011;25241;41.978;14.664;2022-11-20T02:18:03;3.95;;;0.38;;
39566;SDS011;25241;41.978;14.664;2022-11-20T02:20:29;0.40;;;0.40;;
39566;SDS011;25241;41.978;14.664;2022-11-20T02:22:57;3.30;;;0.30;;
39566;SDS011;25241;41.978;14.664;2022-11-20T02:47:33;0.10;;;0.10;;
39566;SDS011;25241;41.978;14.664;2022-11-20T02:50:01;1.80;;;0.30;;
39566;SDS011;25241;41.978;14.664;2022-11-20T02:52:26;0.08;;;0.08;;
39566;SDS011;25241;41.978;14.664;2022-11-20T02:54:52;0.28;;;0.28;;
39566;SDS011;25241;41.978;14.664;2022-11-20T02:57:18;3.75;;;0.65;;
39566;SDS011;25241;41.978;14.664;2022-11-20T02:59:46;7.60;;;0.40;;
39566;SDS011;25241;41.978;14.664;2022-11-20T03:02:11;0.75;;;0.50;;
39566;SDS011;25241;41.978;14.664;2022-11-20T03:04:37;2.63;;;0.20;;
39566;SDS011;25241;41.978;14.664;2022-11-20T03:07:05;1.55;;;0.30;;
39566;SDS011;25241;41.978;14.664;2022-11-20T03:09:33;1.30;;;0.57;;
39566;SDS011;25241;41.978;14.664;2022-11-20T03:11:59;4.78;;;0.40;;
39566;SDS011;25241;41.978;14.664;2022-11-20T03:14:24;4.35;;;0.38;;
39566;SDS011;25241;41.978;14.664;2022-11-20T03:16:52;0.90;;;0.20;;
39566;SDS011;25241;41.978;14.664;2022-11-20T03:19:18;1.13;;;0.45;;
39566;SDS011;25241;41.978;14.664;2022-11-20T03:21:43;2.47;;;0.75;;
39566;SDS011;25241;41.978;14.664;2022-11-20T03:24:11;3.47;;;0.50;;
39566;SDS011;25241;41.978;14.664;2022-11-20T03:26:38;2.72;;;1.02;;
39566;SDS011;25241;41.978;14.664;2022-11-20T03:29:04;2.40;;;0.43;;
39566;SDS011;25241;41.978;14.664;2022-11-20T03:31:32;2.60;;;1.10;;
39566;SDS011;25241;41.978;14.664;2022-11-20T03:33:59;6.25;;;0.68;;
39566;SDS011;25241;41.978;14.664;2022-11-20T03:36:27;4.78;;;0.90;;
39566;SDS011;25241;41.978;14.664;2022-11-20T03:38:54;0.95;;;0.50;;
39566;SDS011;25241;41.978;14.664;2022-11-20T03:41:21;2.10;;;0.40;;
39566;SDS011;25241;41.978;14.664;2022-11-20T03:43:53;1.20;;;0.25;;
39566;SDS011;25241;41.978;14.664;2022-11-20T03:46:22;4.22;;;0.35;;
39566;SDS011;25241;41.978;14.664;2022-11-20T03:48:48;2.75;;;0.88;;
39566;SDS011;25241;41.978;14.664;2022-11-20T03:51:16;0.45;;;0.20;;
39566;SDS011;25241;41.978;14.664;2022-11-20T03:53:44;2.72;;;0.08;;
39566;SDS011;25241;41.978;14.664;2022-11-20T03:56:13;8.00;;;0.55;;
39566;SDS011;25241;41.978;14.664;2022-11-20T03:58:40;0.77;;;0.30;;
39566;SDS011;25241;41.978;14.664;2022-11-20T04:01:08;0.13;;;0.03;;
39566;SDS011;25241;41.978;14.664;2022-11-20T04:03:36;3.70;;;0.17;;
39566;SDS011;25241;41.978;14.664;2022-11-20T04:06:22;0.40;;;0.15;;
39566;SDS011;25241;41.978;14.664;2022-11-20T04:08:48;2.72;;;0.10;;
39566;SDS011;25241;41.978;14.664;2022-11-20T04:11:18;0.10;;;0.10;;
39566;SDS011;25241;41.978;14.664;2022-11-20T04:13:46;3.55;;;0.95;;
39566;SDS011;25241;41.978;14.664;2022-11-20T04:16:14;0.10;;;0.10;;
39566;SDS011;25241;41.978;14.664;2022-11-20T04:18:39;1.45;;;0.32;;
39566;SDS011;25241;41.978;14.664;2022-11-20T04:21:05;5.55;;;1.30;;
39566;SDS011;25241;41.978;14.664;2022-11-20T04:23:31;2.78;;;0.93;;
39566;SDS011;25241;41.978;14.664;2022-11-20T04:26:15;2.13;;;0.88;;
39566;SDS011;25241;41.978;14.664;2022-11-20T04:28:44;0.45;;;0.10;;
39566;SDS011;25241;41.978;14.664;2022-11-20T04:31:13;0.32;;;0.20;;
39566;SDS011;25241;41.978;14.664;2022-11-20T04:33:40;0.22;;;0.10;;
39566;SDS011;25241;41.978;14.664;2022-11-20T04:36:07;1.30;;;0.17;;
39566;SDS011;25241;41.978;14.664;2022-11-20T04:38:39;1.75;;;0.20;;
39566;SDS011;25241;41.978;14.664;2022-11-20T04:41:06;1.27;;;0.13;;
39566;SDS011;25241;41.978;14.664;2022-11-20T04:43:33;1.75;;;0.38;;
39566;SDS011;25241;41.978;14.664;2022-11-20T04:46:01;2.15;;;0.38;;
39566;SDS011;25241;41.978;14.664;2022-11-20T04:48:27;1.30;;;0.43;;
39566;SDS011;25241;41.978;14.664;2022-11-20T04:50:54;0.98;;;0.10;;
39566;SDS011;25241;41.978;14.664;2022-11-20T04:53:20;0.45;;;0.10;;
39566;SDS011;25241;41.978;14.664;2022-11-20T04:55:49;0.30;;;0.20;;
39566;SDS011;25241;41.978;14.664;2022-11-20T04:58:15;0.70;;;0.10;;
39566;SDS011;25241;41.978;14.664;2022-11-20T05:00:43;1.75;;;0.10;;
39566;SDS011;25241;41.978;14.664;2022-11-20T05:03:09;0.13;;;0.13;;
39566;SDS011;25241;41.978;14.664;2022-11-20T05:05:35;0.20;;;0.13;;
39566;SDS011;25241;41.978;14.664;2022-11-20T05:08:00;1.00;;;0.20;;
39566;SDS011;25241;41.978;14.664;2022-11-20T05:10:26;2.42;;;0.40;;
39566;SDS011;25241;41.978;14.664;2022-11-20T05:12:52;3.13;;;0.45;;
39566;SDS011;25241;41.978;14.664;2022-11-20T05:15:20;0.55;;;0.38;;
39566;SDS011;25241;41.978;14.664;2022-11-20T05:17:49;5.93;;;0.20;;
39566;SDS011;25241;41.978;14.664;2022-11-20T05:20:15;4.28;;;0.28;;
39566;SDS011;25241;41.978;14.664;2022-11-20T05:22:41;5.30;;;0.85;;
39566;SDS011;25241;41.978;14.664;2022-11-20T05:25:10;2.55;;;0.30;;
39566;SDS011;25241;41.978;14.664;2022-11-20T05:27:36;2.83;;;0.85;;
39566;SDS011;25241;41.978;14.664;2022-11-20T05:30:02;0.93;;;0.40;;
39566;SDS011;25241;41.978;14.664;2022-11-20T05:32:29;0.73;;;0.32;;
39566;SDS011;25241;41.978;14.664;2022-11-20T05:34:57;0.22;;;0.10;;
39566;SDS011;25241;41.978;14.664;2022-11-20T05:37:22;5.38;;;0.43;;
39566;SDS011;25241;41.978;14.664;2022-11-20T05:39:48;3.00;;;0.65;;
39566;SDS011;25241;41.978;14.664;2022-11-20T05:42:14;2.67;;;0.82;;
39566;SDS011;25241;41.978;14.664;2022-11-20T05:44:58;2.53;;;0.47;;
39566;SDS011;25241;41.978;14.664;2022-11-20T05:47:27;0.73;;;0.25;;
39566;SDS011;25241;41.978;14.664;2022-11-20T05:49:53;4.60;;;0.65;;
39566;SDS011;25241;41.978;14.664;2022-11-20T05:52:19;2.30;;;0.25;;
39566;SDS011;25241;41.978;14.664;2022-11-20T05:54:45;0.57;;;0.22;;
39566;SDS011;25241;41.978;14.664;2022-11-20T05:57:11;1.27;;;0.52;;
39566;SDS011;25241;41.978;14.664;2022-11-20T05:59:39;6.10;;;1.48;;
39566;SDS011;25241;41.978;14.664;2022-11-20T06:02:05;0.77;;;0.20;;
39566;SDS011;25241;41.978;14.664;2022-11-20T06:04:30;1.30;;;0.75;;
39566;SDS011;25241;41.978;14.664;2022-11-20T06:06:56;2.80;;;0.45;;
39566;SDS011;25241;41.978;14.664;2022-11-20T06:09:21;1.05;;;0.43;;
39566;SDS011;25241;41.978;14.664;2022-11-20T06:11:47;2.75;;;0.90;;
39566;SDS011;25241;41.978;14.664;2022-11-20T06:14:13;6.65;;;1.30;;
39566;SDS011;25241;41.978;14.664;2022-11-20T06:16:41;2.47;;;0.73;;
39566;SDS011;25241;41.978;14.664;2022-11-20T06:19:06;9.52;;;1.20;;
39566;SDS011;25241;41.978;14.664;2022-11-20T06:21:32;6.25;;;0.45;;
39566;SDS011;25241;41.978;14.664;2022-11-20T06:24:00;3.83;;;0.73;;
39566;SDS011;25241;41.978;14.664;2022-11-20T06:26:26;5.85;;;1.02;;
39566;SDS011;25241;41.978;14.664;2022-11-20T06:28:55;10.07;;;1.60;;
39566;SDS011;25241;41.978;14.664;2022-11-20T06:31:22;3.13;;;1.08;;
39566;SDS011;25241;41.978;14.664;2022-11-20T06:33:48;3.33;;;1.02;;
39566;SDS011;25241;41.978;14.664;2022-11-20T06:36:15;6.03;;;1.70;;
39566;SDS011;25241;41.978;14.664;2022-11-20T06:38:40;13.88;;;2.25;;
39566;SDS011;25241;41.978;14.664;2022-11-20T06:41:07;2.08;;;0.82;;
39566;SDS011;25241;41.978;14.664;2022-11-20T06:43:37;0.63;;;0.43;;
39566;SDS011;25241;41.978;14.664;2022-11-20T06:46:03;4.20;;;0.60;;
39566;SDS011;25241;41.978;14.664;2022-11-20T06:48:29;3.15;;;0.30;;
39566;SDS011;25241;41.978;14.664;2022-11-20T06:50:54;1.58;;;0.43;;
39566;SDS011;25241;41.978;14.664;2022-11-20T06:53:21;3.13;;;0.65;;
39566;SDS011;25241;41.978;14.664;2022-11-20T06:55:46;0.43;;;0.20;;
39566;SDS011;25241;41.978;14.664;2022-11-20T06:58:15;3.30;;;0.40;;
39566;SDS011;25241;41.978;14.664;2022-11-20T07:00:41;0.30;;;0.10;;
39566;SDS011;25241;41.978;14.664;2022-11-20T07:03:07;0.38;;;0.10;;
39566;SDS011;25241;41.978;14.664;2022-11-20T07:05:35;2.95;;;0.35;;
39566;SDS011;25241;41.978;14.664;2022-11-20T07:08:01;0.55;;;0.35;;
39566;SDS011;25241;41.978;14.664;2022-11-20T07:10:28;2.20;;;0.20;;
39566;SDS011;25241;41.978;14.664;2022-11-20T07:12:54;3.60;;;1.30;;
39566;SDS011;25241;41.978;14.664;2022-11-20T07:15:20;0.63;;;0.22;;
39566;SDS011;25241;41.978;14.664;2022-11-20T07:17:47;0.38;;;0.20;;
39566;SDS011;25241;41.978;14.664;2022-11-20T07:20:12;0.52;;;0.22;;
39566;SDS011;25241;41.978;14.664;2022-11-20T07:22:39;1.63;;;0.40;;
39566;SDS011;25241;41.978;14.664;2022-11-20T07:25:05;4.72;;;0.40;;
39566;SDS011;25241;41.978;14.664;2022-11-20T07:27:31;1.23;;;0.30;;
39566;SDS011;25241;41.978;14.664;2022-11-20T07:29:57;0.73;;;0.20;;
39566;SDS011;25241;41.978;14.664;2022-11-20T07:32:23;1.63;;;0.28;;
39566;SDS011;25241;41.978;14.664;2022-11-20T07:34:49;0.73;;;0.15;;
39566;SDS011;25241;41.978;14.664;2022-11-20T07:37:14;0.88;;;0.45;;
39566;SDS011;25241;41.978;14.664;2022-11-20T07:39:41;2.17;;;0.50;;
39566;SDS011;25241;41.978;14.664;2022-11-20T07:42:07;3.20;;;0.60;;
39566;SDS011;25241;41.978;14.664;2022-11-20T07:44:33;0.25;;;0.15;;
39566;SDS011;25241;41.978;14.664;2022-11-20T07:47:01;0.50;;;0.28;;
39566;SDS011;25241;41.978;14.664;2022-11-20T07:49:27;4.75;;;0.30;;
39566;SDS011;25241;41.978;14.664;2022-11-20T07:51:52;3.50;;;0.43;;
39566;SDS011;25241;41.978;14.664;2022-11-20T07:54:22;1.13;;;0.25;;
39566;SDS011;25241;41.978;14.664;2022-11-20T07:56:48;0.50;;;0.37;;
39566;SDS011;25241;41.978;14.664;2022-11-20T07:59:14;1.10;;;0.47;;
39566;SDS011;25241;41.978;14.664;2022-11-20T08:01:41;2.33;;;0.82;;
39566;SDS011;25241;41.978;14.664;2022-11-20T08:04:07;4.32;;;1.27;;
39566;SDS011;25241;41.978;14.664;2022-11-20T08:06:35;3.15;;;0.60;;
39566;SDS011;25241;41.978;14.664;2022-11-20T08:09:01;0.57;;;0.03;;
39566;SDS011;25241;41.978;14.664;2022-11-20T08:11:27;0.20;;;0.20;;
39566;SDS011;25241;41.978;14.664;2022-11-20T08:14:14;2.92;;;0.60;;
39566;SDS011;25241;41.978;14.664;2022-11-20T08:16:43;0.38;;;0.30;;
39566;SDS011;25241;41.978;14.664;2022-11-20T08:19:10;3.70;;;0.10;;
39566;SDS011;25241;41.978;14.664;2022-11-20T08:21:39;0.40;;;0.20;;
39566;SDS011;25241;41.978;14.664;2022-11-20T08:24:05;4.57;;;0.70;;
39566;SDS011;25241;41.978;14.664;2022-11-20T08:26:31;0.93;;;0.30;;
39566;SDS011;25241;41.978;14.664;2022-11-20T08:28:57;5.82;;;0.60;;
39566;SDS011;25241;41.978;14.664;2022-11-20T08:31:23;3.33;;;0.80;;
39566;SDS011;25241;41.978;14.664;2022-11-20T08:33:50;1.75;;;0.30;;
39566;SDS011;25241;41.978;14.664;2022-11-20T08:36:16;0.57;;;0.15;;
39566;SDS011;25241;41.978;14.664;2022-11-20T08:38:46;1.48;;;0.60;;
39566;SDS011;25241;41.978;14.664;2022-11-20T08:41:15;1.75;;;0.90;;
39566;SDS011;25241;41.978;14.664;2022-11-20T08:46:30;0.40;;;0.40;;
39566;SDS011;25241;41.978;14.664;2022-11-20T08:49:02;2.42;;;0.77;;
39566;SDS011;25241;41.978;14.664;2022-11-20T08:51:31;1.00;;;0.57;;
39566;SDS011;25241;41.978;14.664;2022-11-20T08:53:58;4.30;;;0.82;;
39566;SDS011;25241;41.978;14.664;2022-11-20T08:56:23;0.95;;;0.32;;
39566;SDS011;25241;41.978;14.664;2022-11-20T08:58:49;0.82;;;0.30;;
39566;SDS011;25241;41.978;14.664;2022-11-20T09:01:19;0.30;;;0.30;;
39566;SDS011;25241;41.978;14.664;2022-11-20T09:03:45;1.63;;;0.30;;
39566;SDS011;25241;41.978;14.664;2022-11-20T09:06:14;1.15;;;0.47;;
39566;SDS011;25241;41.978;14.664;2022-11-20T09:08:39;0.85;;;0.28;;
39566;SDS011;25241;41.978;14.664;2022-11-20T09:11:05;0.10;;;0.10;;
39566;SDS011;25241;41.978;14.664;2022-11-20T09:13:34;1.48;;;0.22;;
39566;SDS011;25241;41.978;14.664;2022-11-20T09:16:04;2.53;;;0.43;;
39566;SDS011;25241;41.978;14.664;2022-11-20T09:18:31;1.60;;;0.47;;
39566;SDS011;25241;41.978;14.664;2022-11-20T09:20:58;0.40;;;0.30;;
39566;SDS011;25241;41.978;14.664;2022-11-20T09:23:25;4.53;;;0.80;;
39566;SDS011;25241;41.978;14.664;2022-11-20T09:25:51;1.40;;;0.77;;
39566;SDS011;25241;41.978;14.664;2022-11-20T09:28:17;4.05;;;0.55;;
39566;SDS011;25241;41.978;14.664;2022-11-20T09:30:46;1.33;;;0.60;;
39566;SDS011;25241;41.978;14.664;2022-11-20T09:33:14;5.93;;;1.98;;
39566;SDS011;25241;41.978;14.664;2022-11-20T09:35:40;1.67;;;0.80;;
39566;SDS011;25241;41.978;14.664;2022-11-20T09:38:08;4.63;;;0.70;;
39566;SDS011;25241;41.978;14.664;2022-11-20T09:45:54;2.15;;;0.60;;
39566;SDS011;25241;41.978;14.664;2022-11-20T09:51:35;1.08;;;0.88;;
39566;SDS011;25241;41.978;14.664;2022-11-20T09:54:21;6.13;;;0.80;;
39566;SDS011;25241;41.978;14.664;2022-11-20T09:56:56;0.52;;;0.30;;
39566;SDS011;25241;41.978;14.664;2022-11-20T09:59:50;14.13;;;3.53;;
39566;SDS011;25241;41.978;14.664;2022-11-20T10:04:57;9.18;;;4.15;;
39566;SDS011;25241;41.978;14.664;2022-11-20T10:07:30;2.85;;;1.50;;
39566;SDS011;25241;41.978;14.664;2022-11-20T10:10:13;2.95;;;0.90;;
39566;SDS011;25241;41.978;14.664;2022-11-20T10:12:50;8.60;;;2.63;;
39566;SDS011;25241;41.978;14.664;2022-11-20T10:20:58;1.13;;;0.70;;
39566;SDS011;25241;41.978;14.664;2022-11-20T10:31:17;1.15;;;0.80;;
39566;SDS011;25241;41.978;14.664;2022-11-20T10:33:57;0.57;;;0.50;;
39566;SDS011;25241;41.978;14.664;2022-11-20T10:36:27;3.28;;;1.40;;
39566;SDS011;25241;41.978;14.664;2022-11-20T10:39:01;1.45;;;0.88;;
39566;SDS011;25241;41.978;14.664;2022-11-20T10:41:40;4.10;;;1.02;;
39566;SDS011;25241;41.978;14.664;2022-11-20T10:46:44;1.27;;;0.65;;
39566;SDS011;25241;41.978;14.664;2022-11-20T10:49:18;1.73;;;0.60;;
39566;SDS011;25241;41.978;14.664;2022-11-20T11:00:34;7.68;;;2.92;;
39566;SDS011;25241;41.978;14.664;2022-11-20T11:03:00;12.60;;;3.88;;
39566;SDS011;25241;41.978;14.664;2022-11-20T11:05:37;8.95;;;2.63;;
39566;SDS011;25241;41.978;14.664;2022-11-20T11:08:08;10.82;;;3.45;;
39566;SDS011;25241;41.978;14.664;2022-11-20T11:10:47;4.78;;;1.75;;
39566;SDS011;25241;41.978;14.664;2022-11-20T11:13:23;6.32;;;2.17;;
39566;SDS011;25241;41.978;14.664;2022-11-20T11:15:53;5.68;;;3.13;;
39566;SDS011;25241;41.978;14.664;2022-11-20T11:18:26;7.05;;;2.83;;
39566;SDS011;25241;41.978;14.664;2022-11-20T11:20:56;8.52;;;2.35;;
39566;SDS011;25241;41.978;14.664;2022-11-20T11:23:34;11.98;;;3.22;;
39566;SDS011;25241;41.978;14.664;2022-11-20T11:26:03;4.90;;;3.05;;
39566;SDS011;25241;41.978;14.664;2022-11-20T11:28:30;2.75;;;1.75;;
39566;SDS011;25241;41.978;14.664;2022-11-20T11:30:56;5.07;;;2.05;;
39566;SDS011;25241;41.978;14.664;2022-11-20T11:33:29;6.28;;;1.00;;
39566;SDS011;25241;41.978;14.664;2022-11-20T11:35:58;4.15;;;2.30;;
39566;SDS011;25241;41.978;14.664;2022-11-20T11:38:34;12.25;;;4.75;;
39566;SDS011;25241;41.978;14.664;2022-11-20T11:41:05;5.75;;;2.70;;
39566;SDS011;25241;41.978;14.664;2022-11-20T11:43:35;8.73;;;3.70;;
39566;SDS011;25241;41.978;14.664;2022-11-20T11:48:59;16.45;;;6.00;;
39566;SDS011;25241;41.978;14.664;2022-11-20T11:51:26;8.05;;;3.03;;
39566;SDS011;25241;41.978;14.664;2022-11-20T11:54:19;5.75;;;2.95;;
39566;SDS011;25241;41.978;14.664;2022-11-20T11:56:49;6.22;;;2.72;;
39566;SDS011;25241;41.978;14.664;2022-11-20T11:59:20;3.53;;;1.65;;
39566;SDS011;25241;41.978;14.664;2022-11-20T12:01:58;4.97;;;2.40;;
39566;SDS011;25241;41.978;14.664;2022-11-20T12:04:40;8.57;;;2.40;;
39566;SDS011;25241;41.978;14.664;2022-11-20T12:07:15;4.95;;;1.52;;
39566;SDS011;25241;41.978;14.664;2022-11-20T12:09:58;5.60;;;1.65;;
39566;SDS011;25241;41.978;14.664;2022-11-20T12:12:33;6.38;;;1.83;;
39566;SDS011;25241;41.978;14.664;2022-11-20T12:15:02;6.28;;;1.60;;
39566;SDS011;25241;41.978;14.664;2022-11-20T12:17:29;7.40;;;2.50;;
39566;SDS011;25241;41.978;14.664;2022-11-20T12:19:55;4.85;;;1.90;;
39566;SDS011;25241;41.978;14.664;2022-11-20T12:30:27;15.15;;;4.30;;
39566;SDS011;25241;41.978;14.664;2022-11-20T12:33:08;9.27;;;1.92;;
39566;SDS011;25241;41.978;14.664;2022-11-20T12:43:27;4.00;;;1.35;;
39566;SDS011;25241;41.978;14.664;2022-11-20T12:49:08;3.22;;;1.35;;
39566;SDS011;25241;41.978;14.664;2022-11-20T12:54:29;6.28;;;2.17;;
39566;SDS011;25241;41.978;14.664;2022-11-20T12:59:57;7.32;;;2.45;;
39566;SDS011;25241;41.978;14.664;2022-11-20T13:05:50;27.58;;;8.77;;
39566;SDS011;25241;41.978;14.664;2022-11-20T13:13:51;2.50;;;1.55;;
39566;SDS011;25241;41.978;14.664;2022-11-20T13:16:50;4.28;;;2.22;;
39566;SDS011;25241;41.978;14.664;2022-11-20T13:19:23;4.57;;;1.48;;
39566;SDS011;25241;41.978;14.664;2022-11-20T13:21:51;11.30;;;3.95;;
39566;SDS011;25241;41.978;14.664;2022-11-20T13:29:36;41.40;;;14.55;;
39566;SDS011;25241;41.978;14.664;2022-11-20T13:32:06;73.95;;;19.85;;
39566;SDS011;25241;41.978;14.664;2022-11-20T13:34:50;11.80;;;4.72;;
39566;SDS011;25241;41.978;14.664;2022-11-20T13:37:28;4.17;;;2.20;;
39566;SDS011;25241;41.978;14.664;2022-11-20T13:40:10;5.68;;;2.72;;
39566;SDS011;25241;41.978;14.664;2022-11-20T13:42:43;7.13;;;2.50;;
39566;SDS011;25241;41.978;14.664;2022-11-20T13:45:11;8.07;;;2.95;;
39566;SDS011;25241;41.978;14.664;2022-11-20T13:47:48;4.60;;;2.97;;
39566;SDS011;25241;41.978;14.664;2022-11-20T13:50:15;8.95;;;2.97;;
39566;SDS011;25241;41.978;14.664;2022-11-20T13:52:51;4.07;;;1.95;;
39566;SDS011;25241;41.978;14.664;2022-11-20T13:58:25;3.45;;;1.52;;
39566;SDS011;25241;41.978;14.664;2022-11-20T14:01:19;6.00;;;2.25;;
39566;SDS011;25241;41.978;14.664;2022-11-20T14:03:46;3.35;;;1.42;;
39566;SDS011;25241;41.978;14.664;2022-11-20T14:06:14;2.75;;;1.20;;
39566;SDS011;25241;41.978;14.664;2022-11-20T14:08:46;6.78;;;1.98;;
39566;SDS011;25241;41.978;14.664;2022-11-20T14:11:29;2.67;;;1.25;;
39566;SDS011;25241;41.978;14.664;2022-11-20T14:13:58;4.03;;;1.40;;
39566;SDS011;25241;41.978;14.664;2022-11-20T14:16:26;4.78;;;1.33;;
39566;SDS011;25241;41.978;14.664;2022-11-20T14:18:53;3.35;;;1.48;;
39566;SDS011;25241;41.978;14.664;2022-11-20T14:21:28;8.70;;;3.05;;
39566;SDS011;25241;41.978;14.664;2022-11-20T14:24:04;8.45;;;3.08;;
39566;SDS011;25241;41.978;14.664;2022-11-20T14:26:31;4.15;;;1.92;;
39566;SDS011;25241;41.978;14.664;2022-11-20T14:28:56;9.68;;;3.65;;
39566;SDS011;25241;41.978;14.664;2022-11-20T14:31:25;8.70;;;3.15;;
39566;SDS011;25241;41.978;14.664;2022-11-20T14:33:54;6.20;;;2.25;;
39566;SDS011;25241;41.978;14.664;2022-11-20T14:36:20;7.88;;;3.33;;
39566;SDS011;25241;41.978;14.664;2022-11-20T14:38:47;3.97;;;2.30;;
39566;SDS011;25241;41.978;14.664;2022-11-20T14:41:20;6.32;;;2.10;;
39566;SDS011;25241;41.978;14.664;2022-11-20T14:43:51;10.70;;;2.72;;
39566;SDS011;25241;41.978;14.664;2022-11-20T14:46:24;6.93;;;2.92;;
39566;SDS011;25241;41.978;14.664;2022-11-20T14:48:54;3.97;;;1.80;;
39566;SDS011;25241;41.978;14.664;2022-11-20T14:53:56;2.75;;;1.70;;
39566;SDS011;25241;41.978;14.664;2022-11-20T14:56:24;6.43;;;2.10;;
39566;SDS011;25241;41.978;14.664;2022-11-20T14:58:59;2.55;;;1.83;;
39566;SDS011;25241;41.978;14.664;2022-11-20T15:01:28;7.90;;;2.22;;
39566;SDS011;25241;41.978;14.664;2022-11-20T15:04:07;49.58;;;16.35;;
39566;SDS011;25241;41.978;14.664;2022-11-20T15:06:48;19.75;;;7.18;;
39566;SDS011;25241;41.978;14.664;2022-11-20T15:09:15;8.32;;;3.83;;
39566;SDS011;25241;41.978;14.664;2022-11-20T15:11:49;9.35;;;3.10;;
39566;SDS011;25241;41.978;14.664;2022-11-20T15:14:17;5.45;;;2.03;;
39566;SDS011;25241;41.978;14.664;2022-11-20T15:16:45;5.55;;;2.83;;
39566;SDS011;25241;41.978;14.664;2022-11-20T15:19:16;14.93;;;5.70;;
39566;SDS011;25241;41.978;14.664;2022-11-20T15:21:45;7.68;;;2.38;;
39566;SDS011;25241;41.978;14.664;2022-11-20T15:24:10;7.43;;;2.53;;
39566;SDS011;25241;41.978;14.664;2022-11-20T15:26:36;7.28;;;3.22;;
39566;SDS011;25241;41.978;14.664;2022-11-20T15:29:04;10.10;;;4.85;;
39566;SDS011;25241;41.978;14.664;2022-11-20T15:31:29;8.40;;;3.10;;
39566;SDS011;25241;41.978;14.664;2022-11-20T15:33:55;7.80;;;3.03;;
39566;SDS011;25241;41.978;14.664;2022-11-20T15:36:23;6.47;;;2.80;;
39566;SDS011;25241;41.978;14.664;2022-11-20T15:38:48;5.90;;;1.88;;
39566;SDS011;25241;41.978;14.664;2022-11-20T15:41:14;5.97;;;2.28;;
39566;SDS011;25241;41.978;14.664;2022-11-20T15:43:42;7.38;;;2.88;;
39566;SDS011;25241;41.978;14.664;2022-11-20T15:46:13;4.43;;;2.47;;
39566;SDS011;25241;41.978;14.664;2022-11-20T15:48:42;6.93;;;2.22;;
39566;SDS011;25241;41.978;14.664;2022-11-20T15:53:43;8.75;;;4.05;;
39566;SDS011;25241;41.978;14.664;2022-11-20T15:56:11;6.43;;;2.75;;
39566;SDS011;25241;41.978;14.664;2022-11-20T15:58:37;6.82;;;3.35;;
39566;SDS011;25241;41.978;14.664;2022-11-20T16:01:04;3.63;;;1.70;;
39566;SDS011;25241;41.978;14.664;2022-11-20T16:03:32;6.85;;;2.75;;
39566;SDS011;25241;41.978;14.664;2022-11-20T16:05:57;3.70;;;1.45;;
39566;SDS011;25241;41.978;14.664;2022-11-20T16:08:23;7.38;;;2.05;;
39566;SDS011;25241;41.978;14.664;2022-11-20T16:10:49;3.80;;;1.80;;
39566;SDS011;25241;41.978;14.664;2022-11-20T16:13:16;3.85;;;2.00;;
39566;SDS011;25241;41.978;14.664;2022-11-20T16:16:02;6.35;;;2.17;;
39566;SDS011;25241;41.978;14.664;2022-11-20T16:18:30;4.00;;;1.50;;
39566;SDS011;25241;41.978;14.664;2022-11-20T16:20:55;1.55;;;1.08;;
39566;SDS011;25241;41.978;14.664;2022-11-20T16:23:21;2.53;;;1.10;;
39566;SDS011;25241;41.978;14.664;2022-11-20T16:25:47;4.82;;;1.60;;
39566;SDS011;25241;41.978;14.664;2022-11-20T16:28:13;6.90;;;2.53;;
39566;SDS011;25241;41.978;14.664;2022-11-20T16:30:39;9.90;;;2.30;;
39566;SDS011;25241;41.978;14.664;2022-11-20T16:33:08;13.70;;;4.35;;
39566;SDS011;25241;41.978;14.664;2022-11-20T16:35:36;8.60;;;1.80;;
39566;SDS011;25241;41.978;14.664;2022-11-20T16:38:01;4.22;;;2.28;;
39566;SDS011;25241;41.978;14.664;2022-11-20T16:40:27;7.35;;;2.63;;
39566;SDS011;25241;41.978;14.664;2022-11-20T16:42:53;6.07;;;2.90;;
39566;SDS011;25241;41.978;14.664;2022-11-20T16:45:19;5.07;;;1.38;;